TimeEST,TemperatureF,Dew PointF,Humidity,Sea Level PressureIn,VisibilityMPH,Wind Direction,Wind SpeedMPH,Gust SpeedMPH,PrecipitationIn,Events,Conditions,WindDirDegrees,DateUTC
12:53 AM,19.0,12.0,74,30.46,10.0,NNW,4.6,-,N/A,,Clear,340,2014-03-06 05:53:00
1:53 AM,18.0,12.0,78,30.47,10.0,NNW,4.6,-,N/A,,Clear,340,2014-03-06 06:53:00
2:53 AM,16.0,10.0,77,30.48,10.0,NNW,6.9,-,N/A,,Clear,330,2014-03-06 07:53:00
3:53 AM,16.0,6.1,65,30.50,10.0,North,6.9,-,N/A,,Clear,350,2014-03-06 08:53:00
4:53 AM,15.1,5.0,64,30.50,10.0,North,8.1,-,N/A,,Clear,350,2014-03-06 09:53:00
5:53 AM,14.0,3.0,62,30.54,10.0,NNW,8.1,-,N/A,,Clear,340,2014-03-06 10:53:00
6:53 AM,14.0,1.0,56,30.56,10.0,NNW,8.1,-,N/A,,Clear,340,2014-03-06 11:53:00
7:53 AM,18.0,3.0,52,30.58,10.0,North,9.2,-,N/A,,Clear,360,2014-03-06 12:53:00
8:53 AM,19.9,5.0,52,30.59,10.0,North,13.8,19.6,N/A,,Clear,10,2014-03-06 13:53:00
9:53 AM,23.0,6.1,48,30.60,10.0,North,10.4,19.6,N/A,,Clear,360,2014-03-06 14:53:00
10:53 AM,26.1,8.1,47,30.60,10.0,NNE,9.2,-,N/A,,Mostly Cloudy,20,2014-03-06 15:53:00
11:53 AM,28.0,9.0,45,30.60,10.0,NE,13.8,18.4,N/A,,Clear,40,2014-03-06 16:53:00
12:53 PM,28.9,9.0,43,30.58,10.0,ENE,11.5,18.4,N/A,,Partly Cloudy,60,2014-03-06 17:53:00
1:53 PM,28.9,8.1,41,30.57,10.0,NE,9.2,-,N/A,,Partly Cloudy,50,2014-03-06 18:53:00
2:53 PM,28.9,8.1,41,30.56,10.0,NE,9.2,18.4,N/A,,Clear,50,2014-03-06 19:53:00
3:53 PM,28.9,8.1,41,30.56,10.0,East,5.8,-,N/A,,Clear,100,2014-03-06 20:53:00
4:53 PM,27.0,9.0,47,30.55,10.0,NE,8.1,-,N/A,,Clear,40,2014-03-06 21:53:00
5:53 PM,21.9,10.0,60,30.56,10.0,ENE,6.9,-,N/A,,Clear,60,2014-03-06 22:53:00
6:53 PM,21.9,10.9,63,30.57,10.0,NE,3.5,-,N/A,,Clear,50,2014-03-06 23:53:00
7:53 PM,19.0,10.9,71,30.56,10.0,Calm,Calm,-,N/A,,Clear,0,2014-03-07 00:53:00
8:53 PM,16.0,10.9,81,30.58,10.0,Calm,Calm,-,N/A,,Clear,0,2014-03-07 01:53:00
9:53 PM,12.9,9.0,84,30.56,10.0,Calm,Calm,-,N/A,,Clear,0,2014-03-07 02:53:00
10:53 PM,12.9,9.0,84,30.53,10.0,Calm,Calm,-,N/A,,Clear,0,2014-03-07 03:53:00
11:53 PM,10.9,9.0,92,30.52,10.0,Calm,Calm,-,N/A,,Clear,0,2014-03-07 04:53:00